sensor_id;sensor_type;location;lat;lon;timestamp;pressure;altitude;pressure_sealevel;temperature;humidity
55022;BME280;68328;35.990;-86.756;2023-04-12T00:00:14;99714.53;;;25.68;18.02
55022;BME280;68328;35.990;-86.756;2023-04-12T00:02:40;99714.67;;;25.27;23.37
55022;BME280;68328;35.990;-86.756;2023-04-12T00:05:06;99715.70;;;25.10;25.95
55022;BME280;68328;35.990;-86.756;2023-04-12T00:07:30;99717.61;;;25.02;23.30
55022;BME280;68328;35.990;-86.756;2023-04-12T00:09:57;99721.30;;;25.14;20.70
55022;BME280;68328;35.990;-86.756;2023-04-12T00:12:22;99723.47;;;24.76;19.52
55022;BME280;68328;35.990;-86.756;2023-04-12T00:14:47;99723.61;;;24.81;19.53
55022;BME280;68328;35.990;-86.756;2023-04-12T00:17:13;99725.42;;;24.45;24.99
55022;BME280;68328;35.990;-86.756;2023-04-12T00:19:37;99723.54;;;24.42;24.21
55022;BME280;68328;35.990;-86.756;2023-04-12T00:22:03;99723.26;;;24.27;20.08
55022;BME280;68328;35.990;-86.756;2023-04-12T00:24:28;99725.11;;;24.06;21.02
55022;BME280;68328;35.990;-86.756;2023-04-12T00:26:53;99725.37;;;24.28;20.63
55022;BME280;68328;35.990;-86.756;2023-04-12T00:29:19;99724.27;;;23.83;20.39
55022;BME280;68328;35.990;-86.756;2023-04-12T00:31:44;99726.55;;;23.75;25.72
55022;BME280;68328;35.990;-86.756;2023-04-12T00:34:08;99724.37;;;23.61;23.33
55022;BME280;68328;35.990;-86.756;2023-04-12T00:36:34;99727.01;;;23.84;23.96
55022;BME280;68328;35.990;-86.756;2023-04-12T00:38:59;99728.10;;;23.39;21.47
55022;BME280;68328;35.990;-86.756;2023-04-12T00:41:26;99729.47;;;23.24;25.21
55022;BME280;68328;35.990;-86.756;2023-04-12T00:43:51;99732.52;;;23.28;26.11
55022;BME280;68328;35.990;-86.756;2023-04-12T00:46:17;99732.62;;;23.04;26.66
55022;BME280;68328;35.990;-86.756;2023-04-12T00:48:42;99731.71;;;22.81;22.16
55022;BME280;68328;35.990;-86.756;2023-04-12T00:51:06;99734.36;;;22.90;23.31
55022;BME280;68328;35.990;-86.756;2023-04-12T00:53:33;99733.41;;;22.85;21.73
55022;BME280;68328;35.990;-86.756;2023-04-12T00:55:56;99736.42;;;22.75;21.91
55022;BME280;68328;35.990;-86.756;2023-04-12T00:58:23;99739.09;;;22.63;22.60
55022;BME280;68328;35.990;-86.756;2023-04-12T01:00:48;99737.53;;;22.70;22.41
55022;BME280;68328;35.990;-86.756;2023-04-12T01:03:13;99736.60;;;22.55;22.96
55022;BME280;68328;35.990;-86.756;2023-04-12T01:05:56;99736.97;;;22.38;26.77
55022;BME280;68328;35.990;-86.756;2023-04-12T01:08:08;99735.80;;;22.35;27.25
55022;BME280;68328;35.990;-86.756;2023-04-12T01:10:40;99736.34;;;21.89;28.93
55022;BME280;68328;35.990;-86.756;2023-04-12T01:13:02;99739.61;;;22.29;29.07
55022;BME280;68328;35.990;-86.756;2023-04-12T01:15:21;99742.01;;;21.80;28.14
55022;BME280;68328;35.990;-86.756;2023-04-12T01:17:50;99740.47;;;21.86;25.34
55022;BME280;68328;35.990;-86.756;2023-04-12T01:20:14;99740.06;;;21.77;24.82
55022;BME280;68328;35.990;-86.756;2023-04-12T01:22:47;99742.21;;;21.75;24.69
55022;BME280;68328;35.990;-86.756;2023-04-12T01:25:12;99742.63;;;21.78;27.17
55022;BME280;68328;35.990;-86.756;2023-04-12T01:27:38;99747.06;;;21.71;29.17
55022;BME280;68328;35.990;-86.756;2023-04-12T01:29:52;99752.38;;;21.59;27.13
55022;BME280;68328;35.990;-86.756;2023-04-12T01:32:19;99753.70;;;21.56;28.14
55022;BME280;68328;35.990;-86.756;2023-04-12T01:34:43;99752.28;;;21.07;25.18
55022;BME280;68328;35.990;-86.756;2023-04-12T01:37:09;99755.22;;;20.85;24.53
55022;BME280;68328;35.990;-86.756;2023-04-12T01:39:34;99761.03;;;20.79;25.06
55022;BME280;68328;35.990;-86.756;2023-04-12T01:41:59;99760.29;;;20.68;24.81
55022;BME280;68328;35.990;-86.756;2023-04-12T01:46:51;99761.37;;;20.49;25.76
55022;BME280;68328;35.990;-86.756;2023-04-12T01:49:17;99763.25;;;20.96;29.13
55022;BME280;68328;35.990;-86.756;2023-04-12T01:51:50;99766.03;;;20.63;27.73
55022;BME280;68328;35.990;-86.756;2023-04-12T01:54:10;99766.72;;;20.45;29.11
55022;BME280;68328;35.990;-86.756;2023-04-12T01:56:34;99765.61;;;19.62;26.75
55022;BME280;68328;35.990;-86.756;2023-04-12T01:58:59;99768.47;;;20.17;26.51
55022;BME280;68328;35.990;-86.756;2023-04-12T02:01:22;99768.87;;;20.29;27.67
55022;BME280;68328;35.990;-86.756;2023-04-12T02:03:47;99771.64;;;20.20;30.37
55022;BME280;68328;35.990;-86.756;2023-04-12T02:06:12;99772.82;;;20.13;30.01
55022;BME280;68328;35.990;-86.756;2023-04-12T02:08:37;99775.09;;;20.03;30.57
55022;BME280;68328;35.990;-86.756;2023-04-12T02:11:08;99773.57;;;19.88;28.61
55022;BME280;68328;35.990;-86.756;2023-04-12T02:13:28;99776.90;;;19.72;27.51
55022;BME280;68328;35.990;-86.756;2023-04-12T02:15:54;99773.97;;;19.73;28.14
55022;BME280;68328;35.990;-86.756;2023-04-12T02:18:18;99775.84;;;19.43;27.66
55022;BME280;68328;35.990;-86.756;2023-04-12T02:20:46;99776.38;;;19.79;32.23
55022;BME280;68328;35.990;-86.756;2023-04-12T02:23:10;99778.52;;;19.65;30.28
55022;BME280;68328;35.990;-86.756;2023-04-12T02:25:35;99780.92;;;19.72;30.12
55022;BME280;68328;35.990;-86.756;2023-04-12T02:28:01;99783.84;;;19.70;30.02
55022;BME280;68328;35.990;-86.756;2023-04-12T02:30:26;99784.22;;;19.88;31.40
55022;BME280;68328;35.990;-86.756;2023-04-12T02:32:52;99785.49;;;19.99;28.77
55022;BME280;68328;35.990;-86.756;2023-04-12T02:35:18;99785.57;;;19.42;27.66
55022;BME280;68328;35.990;-86.756;2023-04-12T02:37:43;99788.54;;;19.24;27.64
55022;BME280;68328;35.990;-86.756;2023-04-12T02:40:10;99787.39;;;19.27;28.04
55022;BME280;68328;35.990;-86.756;2023-04-12T02:42:33;99789.12;;;19.29;28.21
55022;BME280;68328;35.990;-86.756;2023-04-12T02:44:58;99795.45;;;19.46;28.71
55022;BME280;68328;35.990;-86.756;2023-04-12T02:47:24;99796.33;;;18.90;28.14
55022;BME280;68328;35.990;-86.756;2023-04-12T02:49:49;99798.98;;;19.41;29.92
55022;BME280;68328;35.990;-86.756;2023-04-12T02:52:14;99800.06;;;19.30;32.69
55022;BME280;68328;35.990;-86.756;2023-04-12T02:54:40;99800.18;;;19.25;31.48
55022;BME280;68328;35.990;-86.756;2023-04-12T02:57:05;99798.37;;;19.15;33.48
55022;BME280;68328;35.990;-86.756;2023-04-12T02:59:31;99803.13;;;19.13;33.04
55022;BME280;68328;35.990;-86.756;2023-04-12T03:01:56;99805.17;;;18.95;33.87
55022;BME280;68328;35.990;-86.756;2023-04-12T03:04:21;99802.86;;;18.94;30.05
55022;BME280;68328;35.990;-86.756;2023-04-12T03:06:46;99800.59;;;18.91;31.44
55022;BME280;68328;35.990;-86.756;2023-04-12T03:09:12;99800.60;;;19.12;30.20
55022;BME280;68328;35.990;-86.756;2023-04-12T03:11:37;99803.90;;;18.47;30.09
55022;BME280;68328;35.990;-86.756;2023-04-12T03:14:04;99804.50;;;18.88;31.86
55022;BME280;68328;35.990;-86.756;2023-04-12T03:16:28;99805.70;;;18.76;32.57
55022;BME280;68328;35.990;-86.756;2023-04-12T03:18:54;99803.62;;;18.59;31.34
55022;BME280;68328;35.990;-86.756;2023-04-12T03:21:18;99802.08;;;18.62;30.63
55022;BME280;68328;35.990;-86.756;2023-04-12T03:23:44;99804.86;;;18.84;34.08
55022;BME280;68328;35.990;-86.756;2023-04-12T03:26:09;99804.02;;;18.67;32.12
55022;BME280;68328;35.990;-86.756;2023-04-12T03:28:35;99802.95;;;18.41;31.87
55022;BME280;68328;35.990;-86.756;2023-04-12T03:31:00;99804.43;;;18.55;32.06
55022;BME280;68328;35.990;-86.756;2023-04-12T03:33:26;99803.85;;;18.54;31.84
55022;BME280;68328;35.990;-86.756;2023-04-12T03:35:50;99803.27;;;18.56;33.09
55022;BME280;68328;35.990;-86.756;2023-04-12T03:38:16;99799.58;;;18.46;33.46
55022;BME280;68328;35.990;-86.756;2023-04-12T03:40:41;99797.42;;;18.16;32.65
55022;BME280;68328;35.990;-86.756;2023-04-12T03:43:07;99799.84;;;18.54;33.41
55022;BME280;68328;35.990;-86.756;2023-04-12T03:45:33;99799.18;;;18.25;33.03
55022;BME280;68328;35.990;-86.756;2023-04-12T03:47:57;99797.22;;;18.19;33.78
55022;BME280;68328;35.990;-86.756;2023-04-12T03:50:23;99797.65;;;18.12;34.62
55022;BME280;68328;35.990;-86.756;2023-04-12T03:52:48;99793.40;;;17.99;32.79
55022;BME280;68328;35.990;-86.756;2023-04-12T03:55:14;99794.05;;;17.77;33.71
55022;BME280;68328;35.990;-86.756;2023-04-12T03:57:39;99795.68;;;18.30;33.39
55022;BME280;68328;35.990;-86.756;2023-04-12T04:00:05;99792.30;;;18.00;32.21
55022;BME280;68328;35.990;-86.756;2023-04-12T04:02:30;99793.45;;;18.28;33.84
55022;BME280;68328;35.990;-86.756;2023-04-12T04:04:55;99792.79;;;17.84;32.76
55022;BME280;68328;35.990;-86.756;2023-04-12T04:07:22;99793.97;;;17.83;31.82
55022;BME280;68328;35.990;-86.756;2023-04-12T04:09:46;99790.06;;;17.26;33.25
55022;BME280;68328;35.990;-86.756;2023-04-12T04:12:11;99790.25;;;17.84;33.59
55022;BME280;68328;35.990;-86.756;2023-04-12T04:14:38;99788.72;;;17.81;32.35
55022;BME280;68328;35.990;-86.756;2023-04-12T04:17:02;99790.00;;;17.51;33.27
55022;BME280;68328;35.990;-86.756;2023-04-12T04:19:28;99790.15;;;17.65;32.67
55022;BME280;68328;35.990;-86.756;2023-04-12T04:21:53;99790.88;;;17.39;31.99
55022;BME280;68328;35.990;-86.756;2023-04-12T04:24:18;99788.08;;;17.11;32.74
55022;BME280;68328;35.990;-86.756;2023-04-12T04:26:45;99788.36;;;17.28;32.54
55022;BME280;68328;35.990;-86.756;2023-04-12T04:29:09;99785.18;;;17.09;32.94
55022;BME280;68328;35.990;-86.756;2023-04-12T04:31:35;99786.02;;;16.95;32.23
55022;BME280;68328;35.990;-86.756;2023-04-12T04:34:01;99785.93;;;17.15;32.14
55022;BME280;68328;35.990;-86.756;2023-04-12T04:36:25;99785.88;;;17.12;32.88
55022;BME280;68328;35.990;-86.756;2023-04-12T04:38:50;99783.12;;;16.70;32.71
55022;BME280;68328;35.990;-86.756;2023-04-12T04:41:16;99783.53;;;16.95;32.48
55022;BME280;68328;35.990;-86.756;2023-04-12T04:43:42;99783.49;;;17.17;33.81
55022;BME280;68328;35.990;-86.756;2023-04-12T04:46:08;99782.20;;;17.16;33.02
55022;BME280;68328;35.990;-86.756;2023-04-12T04:48:32;99784.96;;;16.67;31.64
55022;BME280;68328;35.990;-86.756;2023-04-12T04:51:00;99785.22;;;17.00;32.76
55022;BME280;68328;35.990;-86.756;2023-04-12T04:53:23;99781.65;;;16.81;34.05
55022;BME280;68328;35.990;-86.756;2023-04-12T04:55:48;99780.74;;;16.76;33.84
55022;BME280;68328;35.990;-86.756;2023-04-12T04:58:15;99777.24;;;16.96;32.98
55022;BME280;68328;35.990;-86.756;2023-04-12T05:00:40;99779.45;;;16.48;34.05
55022;BME280;68328;35.990;-86.756;2023-04-12T05:03:05;99778.28;;;16.85;34.05
55022;BME280;68328;35.990;-86.756;2023-04-12T05:05:30;99774.55;;;16.62;33.29
55022;BME280;68328;35.990;-86.756;2023-04-12T05:07:56;99775.13;;;16.56;33.95
55022;BME280;68328;35.990;-86.756;2023-04-12T05:10:21;99777.25;;;16.71;35.82
55022;BME280;68328;35.990;-86.756;2023-04-12T05:12:46;99780.75;;;16.51;34.21
55022;BME280;68328;35.990;-86.756;2023-04-12T05:15:12;99778.80;;;16.30;34.69
55022;BME280;68328;35.990;-86.756;2023-04-12T05:17:37;99776.62;;;16.66;34.36
55022;BME280;68328;35.990;-86.756;2023-04-12T05:20:03;99775.13;;;16.71;34.76
55022;BME280;68328;35.990;-86.756;2023-04-12T05:22:28;99774.34;;;16.55;34.88
55022;BME280;68328;35.990;-86.756;2023-04-12T05:24:53;99774.96;;;16.47;34.43
55022;BME280;68328;35.990;-86.756;2023-04-12T05:27:18;99773.33;;;16.39;35.16
55022;BME280;68328;35.990;-86.756;2023-04-12T05:29:44;99773.00;;;16.32;36.34
55022;BME280;68328;35.990;-86.756;2023-04-12T05:32:10;99771.25;;;16.52;35.55
55022;BME280;68328;35.990;-86.756;2023-04-12T05:34:35;99768.39;;;16.16;34.69
55022;BME280;68328;35.990;-86.756;2023-04-12T05:37:00;99766.31;;;16.14;35.64
55022;BME280;68328;35.990;-86.756;2023-04-12T05:39:25;99767.29;;;16.33;35.24
55022;BME280;68328;35.990;-86.756;2023-04-12T05:41:50;99764.41;;;16.28;36.09
55022;BME280;68328;35.990;-86.756;2023-04-12T05:44:15;99762.85;;;16.02;36.55
55022;BME280;68328;35.990;-86.756;2023-04-12T05:46:42;99760.31;;;16.26;36.31
55022;BME280;68328;35.990;-86.756;2023-04-12T05:49:06;99757.07;;;16.17;34.93
55022;BME280;68328;35.990;-86.756;2023-04-12T05:51:32;99755.79;;;15.86;35.86
55022;BME280;68328;35.990;-86.756;2023-04-12T05:53:57;99754.95;;;15.87;35.62
55022;BME280;68328;35.990;-86.756;2023-04-12T05:56:22;99750.26;;;16.14;35.27
55022;BME280;68328;35.990;-86.756;2023-04-12T05:58:48;99745.46;;;16.01;36.05
55022;BME280;68328;35.990;-86.756;2023-04-12T06:01:13;99746.31;;;16.22;36.43
55022;BME280;68328;35.990;-86.756;2023-04-12T06:03:38;99743.51;;;15.79;37.21
55022;BME280;68328;35.990;-86.756;2023-04-12T06:06:04;99743.15;;;15.93;36.89
55022;BME280;68328;35.990;-86.756;2023-04-12T06:08:29;99736.71;;;16.13;35.47
55022;BME280;68328;35.990;-86.756;2023-04-12T06:10:55;99732.33;;;16.04;34.40
55022;BME280;68328;35.990;-86.756;2023-04-12T06:13:20;99727.91;;;15.88;34.67
55022;BME280;68328;35.990;-86.756;2023-04-12T06:15:45;99724.45;;;15.76;35.32
55022;BME280;68328;35.990;-86.756;2023-04-12T06:18:11;99718.31;;;15.63;35.26
55022;BME280;68328;35.990;-86.756;2023-04-12T06:20:38;99717.08;;;15.90;37.54
55022;BME280;68328;35.990;-86.756;2023-04-12T06:23:02;99713.24;;;15.89;36.24
55022;BME280;68328;35.990;-86.756;2023-04-12T06:25:26;99707.29;;;15.81;35.17
55022;BME280;68328;35.990;-86.756;2023-04-12T06:27:51;99700.35;;;15.26;35.85
55022;BME280;68328;35.990;-86.756;2023-04-12T06:30:18;99697.23;;;15.09;36.09
55022;BME280;68328;35.990;-86.756;2023-04-12T06:32:42;99700.59;;;15.27;37.45
55022;BME280;68328;35.990;-86.756;2023-04-12T06:35:08;99699.22;;;15.38;36.32
55022;BME280;68328;35.990;-86.756;2023-04-12T06:37:33;99697.49;;;15.47;35.65
55022;BME280;68328;35.990;-86.756;2023-04-12T06:39:58;99694.34;;;15.61;34.83
55022;BME280;68328;35.990;-86.756;2023-04-12T06:42:24;99690.24;;;15.54;35.47
55022;BME280;68328;35.990;-86.756;2023-04-12T06:44:50;99690.26;;;15.62;36.64
55022;BME280;68328;35.990;-86.756;2023-04-12T06:47:14;99689.34;;;15.60;37.28
55022;BME280;68328;35.990;-86.756;2023-04-12T06:49:40;99686.14;;;15.49;36.30
55022;BME280;68328;35.990;-86.756;2023-04-12T06:52:05;99680.74;;;15.37;35.37
55022;BME280;68328;35.990;-86.756;2023-04-12T06:54:30;99678.75;;;15.31;35.76
55022;BME280;68328;35.990;-86.756;2023-04-12T06:56:56;99679.55;;;15.36;37.25
55022;BME280;68328;35.990;-86.756;2023-04-12T06:59:21;99682.26;;;15.21;37.27
55022;BME280;68328;35.990;-86.756;2023-04-12T07:01:46;99684.99;;;15.00;37.02
55022;BME280;68328;35.990;-86.756;2023-04-12T07:04:12;99685.73;;;14.97;37.10
55022;BME280;68328;35.990;-86.756;2023-04-12T07:06:37;99683.28;;;15.00;37.53
55022;BME280;68328;35.990;-86.756;2023-04-12T07:09:03;99684.13;;;14.84;37.71
55022;BME280;68328;35.990;-86.756;2023-04-12T07:11:28;99680.68;;;14.70;37.83
55022;BME280;68328;35.990;-86.756;2023-04-12T07:13:53;99678.66;;;14.44;38.09
55022;BME280;68328;35.990;-86.756;2023-04-12T07:16:18;99674.05;;;14.75;37.39
55022;BME280;68328;35.990;-86.756;2023-04-12T07:18:44;99670.01;;;14.87;37.95
55022;BME280;68328;35.990;-86.756;2023-04-12T07:21:09;99667.94;;;14.33;38.92
55022;BME280;68328;35.990;-86.756;2023-04-12T07:23:35;99665.49;;;14.40;38.83
55022;BME280;68328;35.990;-86.756;2023-04-12T07:26:00;99662.71;;;14.17;38.55
55022;BME280;68328;35.990;-86.756;2023-04-12T07:28:25;99662.45;;;14.07;38.98
55022;BME280;68328;35.990;-86.756;2023-04-12T07:30:50;99661.91;;;13.95;39.59
55022;BME280;68328;35.990;-86.756;2023-04-12T07:33:15;99661.39;;;14.17;39.58
55022;BME280;68328;35.990;-86.756;2023-04-12T07:35:40;99661.56;;;14.16;39.36
55022;BME280;68328;35.990;-86.756;2023-04-12T07:38:06;99659.68;;;14.08;38.29
55022;BME280;68328;35.990;-86.756;2023-04-12T07:40:31;99658.48;;;14.30;38.71
55022;BME280;68328;35.990;-86.756;2023-04-12T07:42:56;99656.86;;;14.58;38.09
55022;BME280;68328;35.990;-86.756;2023-04-12T07:45:22;99654.45;;;14.51;38.46
55022;BME280;68328;35.990;-86.756;2023-04-12T07:47:47;99653.10;;;14.30;38.47
55022;BME280;68328;35.990;-86.756;2023-04-12T07:50:13;99653.28;;;14.45;39.46
55022;BME280;68328;35.990;-86.756;2023-04-12T07:52:38;99648.90;;;14.78;39.37
55022;BME280;68328;35.990;-86.756;2023-04-12T07:55:04;99651.44;;;14.41;40.00
55022;BME280;68328;35.990;-86.756;2023-04-12T07:57:29;99651.04;;;14.91;39.32
55022;BME280;68328;35.990;-86.756;2023-04-12T07:59:54;99650.20;;;14.69;38.07
55022;BME280;68328;35.990;-86.756;2023-04-12T08:02:19;99651.23;;;14.75;38.33
55022;BME280;68328;35.990;-86.756;2023-04-12T08:04:45;99651.79;;;14.26;39.13
55022;BME280;68328;35.990;-86.756;2023-04-12T08:07:10;99648.20;;;14.35;38.78
55022;BME280;68328;35.990;-86.756;2023-04-12T08:09:36;99647.76;;;14.42;38.32
55022;BME280;68328;35.990;-86.756;2023-04-12T08:12:01;99646.90;;;14.30;39.12
55022;BME280;68328;35.990;-86.756;2023-04-12T08:14:26;99643.84;;;14.70;40.21
55022;BME280;68328;35.990;-86.756;2023-04-12T08:16:51;99643.84;;;14.41;39.25
55022;BME280;68328;35.990;-86.756;2023-04-12T08:19:19;99644.66;;;14.62;38.51
55022;BME280;68328;35.990;-86.756;2023-04-12T08:21:42;99644.48;;;14.57;38.90
55022;BME280;68328;35.990;-86.756;2023-04-12T08:24:07;99647.30;;;14.29;39.08
55022;BME280;68328;35.990;-86.756;2023-04-12T08:26:32;99645.76;;;14.01;39.38
55022;BME280;68328;35.990;-86.756;2023-04-12T08:28:57;99645.24;;;14.56;39.12
55022;BME280;68328;35.990;-86.756;2023-04-12T08:31:23;99647.48;;;14.53;39.91
55022;BME280;68328;35.990;-86.756;2023-04-12T08:33:49;99646.21;;;14.43;39.04
55022;BME280;68328;35.990;-86.756;2023-04-12T08:36:14;99643.54;;;14.11;38.08
55022;BME280;68328;35.990;-86.756;2023-04-12T08:38:39;99643.54;;;14.35;38.75
55022;BME280;68328;35.990;-86.756;2023-04-12T08:41:05;99646.06;;;14.38;40.39
55022;BME280;68328;35.990;-86.756;2023-04-12T08:43:32;99647.59;;;14.45;39.76
55022;BME280;68328;35.990;-86.756;2023-04-12T08:45:56;99644.04;;;14.40;38.77
55022;BME280;68328;35.990;-86.756;2023-04-12T08:48:22;99643.45;;;14.18;38.81
55022;BME280;68328;35.990;-86.756;2023-04-12T08:50:46;99647.76;;;14.38;39.05
55022;BME280;68328;35.990;-86.756;2023-04-12T08:53:11;99647.55;;;14.41;39.64
55022;BME280;68328;35.990;-86.756;2023-04-12T08:55:37;99647.05;;;14.37;40.08
55022;BME280;68328;35.990;-86.756;2023-04-12T08:58:03;99645.76;;;14.31;39.65
55022;BME280;68328;35.990;-86.756;2023-04-12T09:00:27;99642.67;;;14.41;38.28
55022;BME280;68328;35.990;-86.756;2023-04-12T09:02:53;99647.50;;;14.02;39.22
55022;BME280;68328;35.990;-86.756;2023-04-12T09:05:18;99647.16;;;14.02;39.04
55022;BME280;68328;35.990;-86.756;2023-04-12T09:07:43;99645.71;;;14.09;39.62
55022;BME280;68328;35.990;-86.756;2023-04-12T09:10:09;99645.64;;;14.05;38.86
55022;BME280;68328;35.990;-86.756;2023-04-12T09:12:34;99644.01;;;14.04;38.73
55022;BME280;68328;35.990;-86.756;2023-04-12T09:15:07;99643.34;;;13.96;38.52
55022;BME280;68328;35.990;-86.756;2023-04-12T09:17:26;99640.82;;;14.16;38.82
55022;BME280;68328;35.990;-86.756;2023-04-12T09:19:50;99641.43;;;14.19;39.50
55022;BME280;68328;35.990;-86.756;2023-04-12T09:22:15;99642.78;;;14.23;39.62
55022;BME280;68328;35.990;-86.756;2023-04-12T09:24:46;99639.22;;;14.22;39.64
55022;BME280;68328;35.990;-86.756;2023-04-12T09:27:06;99640.36;;;13.97;38.03
55022;BME280;68328;35.990;-86.756;2023-04-12T09:29:32;99636.16;;;13.89;38.62
55022;BME280;68328;35.990;-86.756;2023-04-12T09:32:00;99633.87;;;13.86;37.90
55022;BME280;68328;35.990;-86.756;2023-04-12T09:34:22;99635.20;;;13.86;38.82
55022;BME280;68328;35.990;-86.756;2023-04-12T09:36:47;99636.04;;;14.01;38.57
55022;BME280;68328;35.990;-86.756;2023-04-12T09:39:12;99637.62;;;13.91;39.80
55022;BME280;68328;35.990;-86.756;2023-04-12T09:41:39;99637.89;;;13.71;38.69
55022;BME280;68328;35.990;-86.756;2023-04-12T09:44:03;99635.80;;;14.06;38.88
55022;BME280;68328;35.990;-86.756;2023-04-12T09:46:28;99637.22;;;13.72;38.50
55022;BME280;68328;35.990;-86.756;2023-04-12T09:48:56;99635.28;;;13.63;37.93
55022;BME280;68328;35.990;-86.756;2023-04-12T09:51:25;99639.12;;;13.79;38.33
55022;BME280;68328;35.990;-86.756;2023-04-12T09:53:46;99638.38;;;13.80;38.62
55022;BME280;68328;35.990;-86.756;2023-04-12T09:56:10;99641.76;;;13.66;40.68
55022;BME280;68328;35.990;-86.756;2023-04-12T09:58:37;99644.05;;;13.61;39.12
55022;BME280;68328;35.990;-86.756;2023-04-12T10:01:01;99643.53;;;13.69;39.73
55022;BME280;68328;35.990;-86.756;2023-04-12T10:03:25;99644.46;;;13.60;39.54
55022;BME280;68328;35.990;-86.756;2023-04-12T10:05:50;99644.94;;;13.59;38.75
55022;BME280;68328;35.990;-86.756;2023-04-12T10:08:16;99644.31;;;13.93;39.34
55022;BME280;68328;35.990;-86.756;2023-04-12T10:10:44;99645.76;;;13.59;40.03
55022;BME280;68328;35.990;-86.756;2023-04-12T10:13:08;99647.52;;;13.78;40.07
55022;BME280;68328;35.990;-86.756;2023-04-12T10:15:32;99646.74;;;13.47;40.46
55022;BME280;68328;35.990;-86.756;2023-04-12T10:17:57;99649.14;;;13.68;40.65
55022;BME280;68328;35.990;-86.756;2023-04-12T10:20:23;99646.40;;;13.63;39.79
55022;BME280;68328;35.990;-86.756;2023-04-12T10:22:50;99648.10;;;13.33;40.27
55022;BME280;68328;35.990;-86.756;2023-04-12T10:25:15;99649.47;;;13.19;40.22
55022;BME280;68328;35.990;-86.756;2023-04-12T10:27:40;99652.59;;;13.38;39.98
55022;BME280;68328;35.990;-86.756;2023-04-12T10:32:29;99649.04;;;13.25;40.67
55022;BME280;68328;35.990;-86.756;2023-04-12T10:34:58;99651.50;;;13.29;42.10
55022;BME280;68328;35.990;-86.756;2023-04-12T10:37:20;99652.43;;;13.35;41.29
55022;BME280;68328;35.990;-86.756;2023-04-12T10:39:51;99650.90;;;13.31;40.66
55022;BME280;68328;35.990;-86.756;2023-04-12T10:42:17;99652.69;;;13.38;41.84
55022;BME280;68328;35.990;-86.756;2023-04-12T10:44:36;99655.23;;;13.39;41.51
55022;BME280;68328;35.990;-86.756;2023-04-12T10:47:02;99656.78;;;13.44;41.97
55022;BME280;68328;35.990;-86.756;2023-04-12T10:49:28;99658.07;;;13.41;40.92
55022;BME280;68328;35.990;-86.756;2023-04-12T10:52:10;99660.56;;;13.15;41.97
55022;BME280;68328;35.990;-86.756;2023-04-12T10:54:30;99659.00;;;13.38;41.39
55022;BME280;68328;35.990;-86.756;2023-04-12T10:56:43;99657.53;;;13.32;41.59
55022;BME280;68328;35.990;-86.756;2023-04-12T10:59:10;99656.71;;;13.35;42.20
55022;BME280;68328;35.990;-86.756;2023-04-12T11:01:34;99659.74;;;13.30;40.44
55022;BME280;68328;35.990;-86.756;2023-04-12T11:04:12;99661.77;;;13.36;40.74
55022;BME280;68328;35.990;-86.756;2023-04-12T11:08:49;99667.98;;;13.05;41.79
55022;BME280;68328;35.990;-86.756;2023-04-12T11:11:19;99669.75;;;13.05;41.69
55022;BME280;68328;35.990;-86.756;2023-04-12T11:13:40;99675.35;;;12.98;42.77
55022;BME280;68328;35.990;-86.756;2023-04-12T11:16:06;99678.18;;;13.30;41.99
55022;BME280;68328;35.990;-86.756;2023-04-12T11:18:33;99680.45;;;13.27;41.61
55022;BME280;68328;35.990;-86.756;2023-04-12T11:20:57;99680.23;;;13.16;42.20
55022;BME280;68328;35.990;-86.756;2023-04-12T11:23:20;99680.44;;;12.95;41.73
55022;BME280;68328;35.990;-86.756;2023-04-12T11:25:49;99681.87;;;12.87;42.04
55022;BME280;68328;35.990;-86.756;2023-04-12T11:28:16;99679.53;;;12.85;42.17
55022;BME280;68328;35.990;-86.756;2023-04-12T11:33:03;99682.60;;;12.68;42.17
55022;BME280;68328;35.990;-86.756;2023-04-12T11:35:28;99687.80;;;13.08;42.74
55022;BME280;68328;35.990;-86.756;2023-04-12T11:37:54;99689.24;;;13.18;41.89
55022;BME280;68328;35.990;-86.756;2023-04-12T11:40:21;99690.13;;;13.16;42.17
55022;BME280;68328;35.990;-86.756;2023-04-12T11:42:44;99695.06;;;13.34;41.61
55022;BME280;68328;35.990;-86.756;2023-04-12T11:45:09;99693.82;;;13.32;41.66
55022;BME280;68328;35.990;-86.756;2023-04-12T11:47:41;99693.81;;;13.30;41.57
55022;BME280;68328;35.990;-86.756;2023-04-12T11:49:59;99697.79;;;13.17;42.55
55022;BME280;68328;35.990;-86.756;2023-04-12T11:52:28;99697.31;;;13.01;42.66
55022;BME280;68328;35.990;-86.756;2023-04-12T11:54:50;99698.96;;;13.48;42.34
55022;BME280;68328;35.990;-86.756;2023-04-12T11:57:17;99700.75;;;12.99;42.25
55022;BME280;68328;35.990;-86.756;2023-04-12T11:59:43;99703.02;;;13.10;42.15
55022;BME280;68328;35.990;-86.756;2023-04-12T12:02:08;99703.11;;;13.44;42.35
55022;BME280;68328;35.990;-86.756;2023-04-12T12:04:31;99704.29;;;13.53;42.67
55022;BME280;68328;35.990;-86.756;2023-04-12T12:06:57;99709.33;;;13.44;42.44
55022;BME280;68328;35.990;-86.756;2023-04-12T12:09:22;99713.32;;;13.64;42.43
55022;BME280;68328;35.990;-86.756;2023-04-12T12:11:47;99713.59;;;13.58;42.44
55022;BME280;68328;35.990;-86.756;2023-04-12T12:14:12;99710.41;;;13.74;43.12
55022;BME280;68328;35.990;-86.756;2023-04-12T12:16:38;99710.46;;;13.90;43.91
55022;BME280;68328;35.990;-86.756;2023-04-12T12:19:04;99713.56;;;13.96;42.04
55022;BME280;68328;35.990;-86.756;2023-04-12T12:21:28;99714.26;;;14.07;42.13
55022;BME280;68328;35.990;-86.756;2023-04-12T12:23:55;99717.57;;;13.99;42.67
55022;BME280;68328;35.990;-86.756;2023-04-12T12:26:20;99719.54;;;13.90;42.51
55022;BME280;68328;35.990;-86.756;2023-04-12T12:28:49;99722.86;;;14.50;42.48
55022;BME280;68328;35.990;-86.756;2023-04-12T12:31:10;99722.32;;;14.17;42.00
55022;BME280;68328;35.990;-86.756;2023-04-12T12:33:37;99718.49;;;14.90;41.60
55022;BME280;68328;35.990;-86.756;2023-04-12T12:36:00;99715.19;;;14.67;41.07
55022;BME280;68328;35.990;-86.756;2023-04-12T12:38:33;99715.94;;;14.87;40.13